createdAt,value
2023-07-17T00:00:50.662Z,474.00
2023-07-17T00:01:50.767Z,475.00
2023-07-17T00:02:50.708Z,474.00
2023-07-17T00:03:50.764Z,475.00
2023-07-17T00:04:50.822Z,480.00
2023-07-17T00:05:50.872Z,479.00
2023-07-17T00:06:50.939Z,477.00
2023-07-17T00:07:51.001Z,476.00
2023-07-17T00:08:51.051Z,474.00
2023-07-17T00:09:51.124Z,475.00
2023-07-17T00:10:51.186Z,476.00
2023-07-17T00:11:51.232Z,477.00
2023-07-17T00:12:51.281Z,477.00
2023-07-17T00:13:51.344Z,477.00
2023-07-17T00:14:51.357Z,475.00
2023-07-17T00:15:51.372Z,474.00
2023-07-17T00:16:51.398Z,474.00
2023-07-17T00:17:51.404Z,471.00
2023-07-17T00:18:51.385Z,471.00
2023-07-17T00:19:51.384Z,469.00
2023-07-17T00:20:51.392Z,471.00
2023-07-17T00:21:51.387Z,470.00
2023-07-17T00:22:51.459Z,471.00
2023-07-17T00:23:51.399Z,472.00
2023-07-17T00:24:51.378Z,473.00
2023-07-17T00:25:51.382Z,475.00
2023-07-17T00:26:51.389Z,474.00
2023-07-17T00:27:51.378Z,473.00
2023-07-17T00:28:51.379Z,472.00
2023-07-17T00:29:51.434Z,472.00
2023-07-17T00:30:51.452Z,474.00
2023-07-17T00:31:51.436Z,472.00
2023-07-17T00:32:51.495Z,469.00
2023-07-17T00:33:51.478Z,469.00
2023-07-17T00:34:51.506Z,470.00
2023-07-17T00:35:51.536Z,471.00
2023-07-17T00:36:51.592Z,469.00
2023-07-17T00:37:51.593Z,468.00
2023-07-17T00:38:51.612Z,468.00
2023-07-17T00:39:51.593Z,470.00
2023-07-17T00:40:51.635Z,471.00
2023-07-17T00:41:51.602Z,471.00
2023-07-17T00:42:51.620Z,472.00
2023-07-17T00:43:51.637Z,473.00
2023-07-17T00:44:51.637Z,472.00
2023-07-17T00:45:51.765Z,472.00
2023-07-17T00:46:51.679Z,471.00
2023-07-17T00:47:51.687Z,470.00
2023-07-17T00:48:51.627Z,469.00
2023-07-17T00:49:51.629Z,470.00
2023-07-17T00:50:51.615Z,469.00
2023-07-17T00:51:51.629Z,469.00
2023-07-17T00:52:51.637Z,467.00
2023-07-17T00:53:51.676Z,469.00
2023-07-17T00:54:51.666Z,467.00
2023-07-17T00:55:51.659Z,469.00
2023-07-17T00:56:51.662Z,472.00
2023-07-17T00:57:51.667Z,472.00
2023-07-17T00:58:51.668Z,472.00
2023-07-17T00:59:51.688Z,471.00
2023-07-17T01:00:51.742Z,472.00
2023-07-17T01:01:51.755Z,473.00
2023-07-17T01:02:51.923Z,474.00
2023-07-17T01:03:51.688Z,473.00
2023-07-17T01:04:51.734Z,472.00
2023-07-17T01:05:51.748Z,472.00
2023-07-17T01:06:51.759Z,471.00
2023-07-17T01:07:51.784Z,469.00
2023-07-17T01:08:51.815Z,469.00
2023-07-17T01:09:51.844Z,469.00
2023-07-17T01:10:51.857Z,469.00
2023-07-17T01:11:51.892Z,468.00
2023-07-17T01:12:51.903Z,468.00
2023-07-17T01:13:51.926Z,467.00
2023-07-17T01:14:51.955Z,469.00
2023-07-17T01:15:51.967Z,471.00
2023-07-17T01:16:52.014Z,474.00
2023-07-17T01:17:52.102Z,476.00
2023-07-17T01:18:52.044Z,475.00
2023-07-17T01:19:52.075Z,474.00
2023-07-17T01:20:52.085Z,475.00
2023-07-17T01:21:52.094Z,474.00
2023-07-17T01:22:52.106Z,473.00
2023-07-17T01:23:52.108Z,473.00
2023-07-17T01:24:52.124Z,474.00
2023-07-17T01:25:52.156Z,474.00
2023-07-17T01:26:52.160Z,475.00
2023-07-17T01:27:52.192Z,476.00
2023-07-17T01:28:52.203Z,475.00
2023-07-17T01:29:52.224Z,476.00
2023-07-17T01:30:52.287Z,475.00
2023-07-17T01:31:52.273Z,476.00
2023-07-17T01:32:52.324Z,476.00
2023-07-17T01:33:52.325Z,478.00
2023-07-17T01:34:52.330Z,479.00
2023-07-17T01:35:52.369Z,480.00
2023-07-17T01:36:52.368Z,480.00
2023-07-17T01:37:52.365Z,478.00
2023-07-17T01:38:52.353Z,478.00
2023-07-17T01:39:52.371Z,477.00
2023-07-17T01:40:52.386Z,477.00
2023-07-17T01:41:52.377Z,480.00
2023-07-17T01:42:52.381Z,481.00
2023-07-17T01:43:52.393Z,481.00
2023-07-17T01:44:52.400Z,482.00
2023-07-17T01:45:52.404Z,486.00
2023-07-17T01:46:52.440Z,484.00
2023-07-17T01:47:52.500Z,485.00
2023-07-17T01:48:52.437Z,483.00
2023-07-17T01:49:52.466Z,482.00
2023-07-17T01:50:52.452Z,480.00
2023-07-17T01:51:52.444Z,478.00
2023-07-17T01:52:52.451Z,477.00
2023-07-17T01:53:52.459Z,477.00
2023-07-17T01:54:52.459Z,478.00
2023-07-17T01:55:52.471Z,477.00
2023-07-17T01:56:52.484Z,476.00
2023-07-17T01:57:52.487Z,478.00
2023-07-17T01:58:52.512Z,477.00
2023-07-17T01:59:52.508Z,477.00
2023-07-17T02:00:52.505Z,476.00
2023-07-17T02:01:52.534Z,477.00
2023-07-17T02:02:52.624Z,479.00
2023-07-17T02:03:52.523Z,478.00
2023-07-17T02:04:52.539Z,480.00
2023-07-17T02:05:52.570Z,480.00
2023-07-17T02:06:52.536Z,478.00
2023-07-17T02:07:52.545Z,478.00
2023-07-17T02:08:52.558Z,478.00
2023-07-17T02:09:52.574Z,480.00
2023-07-17T02:10:52.576Z,481.00
2023-07-17T02:11:52.589Z,478.00
2023-07-17T02:12:52.608Z,478.00
2023-07-17T02:13:53.165Z,480.00
2023-07-17T02:14:52.623Z,481.00
2023-07-17T02:15:52.610Z,480.00
2023-07-17T02:16:52.665Z,482.00
2023-07-17T02:17:52.702Z,481.00
2023-07-17T02:18:52.645Z,482.00
2023-07-17T02:19:52.637Z,482.00
2023-07-17T02:20:52.657Z,486.00
2023-07-17T02:21:52.776Z,487.00
2023-07-17T02:22:52.683Z,488.00
2023-07-17T02:23:52.704Z,486.00
2023-07-17T02:24:52.680Z,485.00
2023-07-17T02:25:52.689Z,484.00
2023-07-17T02:26:52.695Z,483.00
2023-07-17T02:27:52.707Z,482.00
2023-07-17T02:28:52.714Z,483.00
2023-07-17T02:29:52.725Z,483.00
2023-07-17T02:30:52.726Z,482.00
2023-07-17T02:31:52.772Z,484.00
2023-07-17T02:32:52.867Z,485.00
2023-07-17T02:33:52.735Z,484.00
2023-07-17T02:34:52.777Z,483.00
2023-07-17T02:35:52.761Z,483.00
2023-07-17T02:36:52.760Z,484.00
2023-07-17T02:37:52.793Z,481.00
2023-07-17T02:38:52.779Z,482.00
2023-07-17T02:39:52.821Z,483.00
2023-07-17T02:40:52.819Z,484.00
2023-07-17T02:41:52.821Z,483.00
2023-07-17T02:42:52.838Z,482.00
2023-07-17T02:43:52.830Z,483.00
2023-07-17T02:44:52.836Z,482.00
2023-07-17T02:45:52.856Z,480.00
2023-07-17T02:46:52.861Z,480.00
2023-07-17T02:47:52.903Z,482.00
2023-07-17T02:48:52.887Z,479.00
2023-07-17T02:49:52.893Z,481.00
2023-07-17T02:50:52.902Z,480.00
2023-07-17T02:51:52.904Z,480.00
2023-07-17T02:52:52.926Z,480.00
2023-07-17T02:53:52.970Z,478.00
2023-07-17T02:54:52.950Z,481.00
2023-07-17T02:55:52.953Z,479.00
2023-07-17T02:56:52.959Z,480.00
2023-07-17T02:57:52.971Z,480.00
2023-07-17T02:58:52.979Z,480.00
2023-07-17T02:59:52.990Z,483.00
2023-07-17T03:00:53.069Z,482.00
2023-07-17T03:01:53.158Z,481.00
2023-07-17T03:02:53.085Z,482.00
2023-07-17T03:03:53.034Z,481.00
2023-07-17T03:04:53.051Z,481.00
2023-07-17T03:05:53.203Z,481.00
2023-07-17T03:06:53.082Z,482.00
2023-07-17T03:07:53.098Z,482.00
2023-07-17T03:08:53.114Z,483.00
2023-07-17T03:09:53.157Z,479.00
2023-07-17T03:10:53.139Z,478.00
2023-07-17T03:11:53.159Z,480.00
2023-07-17T03:12:53.198Z,477.00
2023-07-17T03:13:53.169Z,477.00
2023-07-17T03:14:53.199Z,477.00
2023-07-17T03:15:53.233Z,475.00
2023-07-17T03:16:53.221Z,475.00
2023-07-17T03:17:53.249Z,477.00
2023-07-17T03:18:53.242Z,478.00
2023-07-17T03:19:53.263Z,481.00
2023-07-17T03:20:53.281Z,481.00
2023-07-17T03:21:53.280Z,480.00
2023-07-17T03:22:53.300Z,482.00
2023-07-17T03:23:53.318Z,482.00
2023-07-17T03:24:53.326Z,483.00
2023-07-17T03:25:53.363Z,482.00
2023-07-17T03:26:53.359Z,486.00
2023-07-17T03:27:53.384Z,486.00
2023-07-17T03:28:53.406Z,485.00
2023-07-17T03:29:53.404Z,487.00
2023-07-17T03:30:53.417Z,489.00
2023-07-17T03:31:53.451Z,486.00
2023-07-17T03:32:53.504Z,486.00
2023-07-17T03:33:53.520Z,486.00
2023-07-17T03:34:53.492Z,486.00
2023-07-17T03:35:53.496Z,488.00
2023-07-17T03:36:53.510Z,485.00
2023-07-17T03:37:53.526Z,485.00
2023-07-17T03:38:53.548Z,486.00
2023-07-17T03:39:53.566Z,487.00
2023-07-17T03:40:53.591Z,487.00
2023-07-17T03:41:53.634Z,489.00
2023-07-17T03:42:53.624Z,488.00
2023-07-17T03:43:53.640Z,488.00
2023-07-17T03:44:53.656Z,492.00
2023-07-17T03:45:53.696Z,491.00
2023-07-17T03:46:53.797Z,490.00
2023-07-17T03:47:53.786Z,484.00
2023-07-17T03:48:53.724Z,482.00
2023-07-17T03:49:53.754Z,481.00
2023-07-17T03:50:53.765Z,482.00
2023-07-17T03:51:53.781Z,482.00
2023-07-17T03:52:53.809Z,484.00
2023-07-17T03:53:53.822Z,483.00
2023-07-17T03:54:53.832Z,485.00
2023-07-17T03:55:53.852Z,484.00
2023-07-17T03:56:53.868Z,484.00
2023-07-17T03:57:53.912Z,487.00
2023-07-17T03:58:53.908Z,486.00
2023-07-17T03:59:53.924Z,484.00
2023-07-17T04:00:53.965Z,485.00
2023-07-17T04:01:53.968Z,486.00
2023-07-17T04:02:54.041Z,486.00
2023-07-17T04:03:54.075Z,484.00
2023-07-17T04:04:54.074Z,486.00
2023-07-17T04:05:54.060Z,484.00
2023-07-17T04:06:54.078Z,483.00
2023-07-17T04:07:54.104Z,486.00
2023-07-17T04:08:54.125Z,486.00
2023-07-17T04:09:54.149Z,486.00
2023-07-17T04:10:54.180Z,486.00
2023-07-17T04:11:54.218Z,485.00
2023-07-17T04:12:54.222Z,485.00
2023-07-17T04:13:54.288Z,484.00
2023-07-17T04:14:54.266Z,482.00
2023-07-17T04:15:54.305Z,482.00
2023-07-17T04:16:54.350Z,482.00
2023-07-17T04:17:54.395Z,482.00
2023-07-17T04:18:54.383Z,481.00
2023-07-17T04:19:54.371Z,481.00
2023-07-17T04:20:54.394Z,482.00
2023-07-17T04:21:54.416Z,482.00
2023-07-17T04:22:54.475Z,481.00
2023-07-17T04:23:54.514Z,483.00
2023-07-17T04:24:54.486Z,483.00
2023-07-17T04:25:54.497Z,484.00
2023-07-17T04:26:54.583Z,484.00
2023-07-17T04:27:54.541Z,486.00
2023-07-17T04:28:54.574Z,485.00
2023-07-17T04:29:54.608Z,483.00
2023-07-17T04:30:54.652Z,484.00
2023-07-17T04:31:54.623Z,481.00
2023-07-17T04:32:54.662Z,479.00
2023-07-17T04:33:54.657Z,479.00
2023-07-17T04:34:54.681Z,479.00
2023-07-17T04:35:54.700Z,475.00
2023-07-17T04:36:54.724Z,476.00
2023-07-17T04:37:54.747Z,474.00
2023-07-17T04:38:54.748Z,475.00
2023-07-17T04:39:54.767Z,473.00
2023-07-17T04:40:54.803Z,473.00
2023-07-17T04:41:54.810Z,474.00
2023-07-17T04:42:54.833Z,476.00
2023-07-17T04:43:54.852Z,475.00
2023-07-17T04:44:54.883Z,475.00
2023-07-17T04:45:54.906Z,474.00
2023-07-17T04:46:55.028Z,475.00
2023-07-17T04:47:55.081Z,476.00
2023-07-17T04:48:54.932Z,478.00
2023-07-17T04:49:54.962Z,480.00
2023-07-17T04:50:55.007Z,479.00
2023-07-17T04:51:55.008Z,479.00
2023-07-17T04:52:55.014Z,481.00
2023-07-17T04:53:55.048Z,480.00
2023-07-17T04:54:55.070Z,482.00
2023-07-17T04:55:55.100Z,480.00
2023-07-17T04:56:55.121Z,482.00
2023-07-17T04:57:55.145Z,478.00
2023-07-17T04:58:55.165Z,478.00
2023-07-17T04:59:55.185Z,477.00
2023-07-17T05:00:55.266Z,481.00
2023-07-17T05:01:55.255Z,484.00
2023-07-17T05:02:55.374Z,483.00
2023-07-17T05:03:55.346Z,484.00
2023-07-17T05:04:55.309Z,485.00
2023-07-17T05:05:55.338Z,487.00
2023-07-17T05:06:55.361Z,486.00
2023-07-17T05:07:55.400Z,485.00
2023-07-17T05:08:55.397Z,488.00
2023-07-17T05:09:55.418Z,489.00
2023-07-17T05:10:55.517Z,487.00
2023-07-17T05:11:55.477Z,490.00
2023-07-17T05:12:55.500Z,489.00
2023-07-17T05:13:55.532Z,486.00
2023-07-17T05:14:55.550Z,487.00
2023-07-17T05:15:55.575Z,488.00
2023-07-17T05:16:55.747Z,489.00
2023-07-17T05:17:55.690Z,489.00
2023-07-17T05:18:55.647Z,491.00
2023-07-17T05:19:55.668Z,491.00
2023-07-17T05:20:55.714Z,491.00
2023-07-17T05:21:55.717Z,492.00
2023-07-17T05:22:55.799Z,495.00
2023-07-17T05:23:55.751Z,494.00
2023-07-17T05:24:55.765Z,495.00
2023-07-17T05:25:55.798Z,494.00
2023-07-17T05:26:55.831Z,493.00
2023-07-17T05:27:55.842Z,491.00
2023-07-17T05:28:55.867Z,491.00
2023-07-17T05:29:55.897Z,494.00
2023-07-17T05:30:55.968Z,493.00
2023-07-17T05:31:55.931Z,495.00
2023-07-17T05:32:56.015Z,495.00
2023-07-17T05:33:56.001Z,498.00
2023-07-17T05:34:56.003Z,500.00
2023-07-17T05:35:56.048Z,498.00
2023-07-17T05:36:56.039Z,497.00
2023-07-17T05:37:56.049Z,496.00
2023-07-17T05:38:56.089Z,496.00
2023-07-17T05:39:56.106Z,496.00
2023-07-17T05:40:56.125Z,496.00
2023-07-17T05:41:56.163Z,499.00
2023-07-17T05:42:56.159Z,500.00
2023-07-17T05:43:56.184Z,501.00
2023-07-17T05:44:56.201Z,501.00
2023-07-17T05:45:56.227Z,501.00
2023-07-17T05:46:56.378Z,499.00
2023-07-17T05:47:56.320Z,499.00
2023-07-17T05:48:56.305Z,506.00
2023-07-17T05:49:56.371Z,503.00
2023-07-17T05:50:56.386Z,502.00
2023-07-17T05:51:56.439Z,505.00
2023-07-17T05:52:56.486Z,519.00
2023-07-17T05:53:56.564Z,523.00
2023-07-17T05:54:57.078Z,526.00
2023-07-17T05:55:56.631Z,534.00
2023-07-17T05:56:56.745Z,532.00
2023-07-17T05:57:56.734Z,534.00
2023-07-17T05:58:56.784Z,536.00
2023-07-17T05:59:56.878Z,535.00
2023-07-17T06:00:56.930Z,538.00
2023-07-17T06:01:56.973Z,539.00
2023-07-17T06:02:57.059Z,540.00
2023-07-17T06:03:57.212Z,542.00
2023-07-17T06:04:57.377Z,542.00
2023-07-17T06:05:57.201Z,543.00
2023-07-17T06:06:57.192Z,543.00
2023-07-17T06:07:57.223Z,542.00
2023-07-17T06:08:57.254Z,541.00
2023-07-17T06:09:57.284Z,544.00
2023-07-17T06:10:57.306Z,551.00
2023-07-17T06:11:57.334Z,554.00
2023-07-17T06:12:57.355Z,554.00
2023-07-17T06:13:57.398Z,559.00
2023-07-17T06:14:57.469Z,564.00
2023-07-17T06:15:57.544Z,566.00
2023-07-17T06:16:57.710Z,566.00
2023-07-17T06:17:57.741Z,567.00
2023-07-17T06:18:57.757Z,571.00
2023-07-17T06:19:57.817Z,576.00
2023-07-17T06:20:57.890Z,579.00
2023-07-17T06:21:58.027Z,577.00
2023-07-17T06:22:58.076Z,578.00
2023-07-17T06:23:58.052Z,579.00
2023-07-17T06:24:58.120Z,580.00
2023-07-17T06:25:58.148Z,578.00
2023-07-17T06:26:58.211Z,576.00
2023-07-17T06:27:58.292Z,576.00
2023-07-17T06:28:58.319Z,578.00
2023-07-17T06:29:58.348Z,581.00
2023-07-17T06:30:58.393Z,585.00
2023-07-17T06:31:58.473Z,590.00
2023-07-17T06:32:58.550Z,598.00
2023-07-17T06:33:58.520Z,604.00
2023-07-17T06:34:58.564Z,604.00
2023-07-17T06:35:58.602Z,603.00
2023-07-17T06:36:58.662Z,608.00
2023-07-17T06:37:58.756Z,604.00
2023-07-17T06:38:58.761Z,590.00
2023-07-17T06:39:58.769Z,588.00
2023-07-17T06:40:58.793Z,582.00
2023-07-17T06:41:58.826Z,573.00
2023-07-17T06:42:58.874Z,562.00
2023-07-17T06:43:58.874Z,555.00
2023-07-17T06:45:01.506Z,551.00
2023-07-17T06:45:58.971Z,552.00
2023-07-17T06:46:58.905Z,549.00
2023-07-17T06:47:58.993Z,548.00
2023-07-17T06:48:58.912Z,547.00
2023-07-17T06:49:58.930Z,545.00
2023-07-17T06:50:58.937Z,546.00
2023-07-17T06:51:58.956Z,543.00
2023-07-17T06:52:58.971Z,542.00
2023-07-17T06:53:59.000Z,540.00
2023-07-17T06:55:03.830Z,538.00
2023-07-17T06:55:58.947Z,536.00
2023-07-17T06:56:58.944Z,534.00
2023-07-17T06:57:58.946Z,534.00
2023-07-17T06:58:58.983Z,535.00
2023-07-17T06:59:58.989Z,532.00
2023-07-17T07:00:58.960Z,532.00
2023-07-17T07:01:59.383Z,531.00
2023-07-17T07:02:59.058Z,529.00
2023-07-17T07:03:59.035Z,531.00
2023-07-17T07:04:58.949Z,533.00
2023-07-17T07:05:58.965Z,533.00
2023-07-17T07:06:58.946Z,533.00
2023-07-17T07:07:58.946Z,532.00
2023-07-17T07:08:58.957Z,531.00
2023-07-17T07:09:59.043Z,532.00
2023-07-17T07:10:58.965Z,531.00
2023-07-17T07:11:58.978Z,532.00
2023-07-17T07:12:59.001Z,532.00
2023-07-17T07:13:58.977Z,528.00
2023-07-17T07:14:58.968Z,526.00
2023-07-17T07:15:59.012Z,523.00
2023-07-17T07:16:59.014Z,522.00
2023-07-17T07:17:59.025Z,525.00
2023-07-17T07:18:58.954Z,526.00
2023-07-17T07:19:58.971Z,527.00
2023-07-17T07:20:58.949Z,529.00
2023-07-17T07:21:58.955Z,529.00
2023-07-17T07:22:58.990Z,527.00
2023-07-17T07:23:58.932Z,527.00
2023-07-17T07:24:58.934Z,526.00
2023-07-17T07:25:58.966Z,527.00
2023-07-17T07:26:58.940Z,525.00
2023-07-17T07:27:58.939Z,526.00
2023-07-17T07:28:58.932Z,527.00
2023-07-17T07:29:58.938Z,527.00
2023-07-17T07:30:58.976Z,528.00
2023-07-17T07:31:58.982Z,525.00
2023-07-17T07:32:58.986Z,523.00
2023-07-17T07:33:58.940Z,524.00
2023-07-17T07:34:58.934Z,523.00
2023-07-17T07:35:58.929Z,521.00
2023-07-17T07:36:58.927Z,523.00
2023-07-17T07:37:58.928Z,523.00
2023-07-17T07:38:58.948Z,523.00
2023-07-17T07:39:58.932Z,521.00
2023-07-17T07:40:58.934Z,524.00
2023-07-17T07:41:58.990Z,523.00
2023-07-17T07:42:58.941Z,522.00
2023-07-17T07:43:58.925Z,524.00
2023-07-17T07:44:58.927Z,525.00
2023-07-17T07:45:58.970Z,525.00
2023-07-17T07:46:58.914Z,526.00
2023-07-17T07:47:58.953Z,525.00
2023-07-17T07:48:58.915Z,525.00
2023-07-17T07:49:58.949Z,527.00
2023-07-17T07:50:58.917Z,526.00
2023-07-17T07:51:58.910Z,525.00
2023-07-17T07:52:58.904Z,523.00
2023-07-17T07:53:58.904Z,520.00
2023-07-17T07:55:00.690Z,519.00
2023-07-17T07:55:58.904Z,518.00
2023-07-17T07:56:58.896Z,519.00
2023-07-17T07:57:59.011Z,518.00
2023-07-17T07:58:58.964Z,515.00
2023-07-17T07:59:58.955Z,515.00
2023-07-17T08:00:58.895Z,516.00
2023-07-17T08:01:58.960Z,514.00
2023-07-17T08:02:58.978Z,514.00
2023-07-17T08:03:58.923Z,514.00
2023-07-17T08:04:58.899Z,516.00
2023-07-17T08:05:58.942Z,518.00
2023-07-17T08:06:58.908Z,519.00
2023-07-17T08:07:58.965Z,519.00
2023-07-17T08:08:58.921Z,522.00
2023-07-17T08:09:58.917Z,524.00
2023-07-17T08:10:58.925Z,524.00
2023-07-17T08:11:58.963Z,523.00
2023-07-17T08:12:58.938Z,524.00
2023-07-17T08:13:58.970Z,527.00
2023-07-17T08:14:58.961Z,527.00
2023-07-17T08:15:58.989Z,527.00
2023-07-17T08:16:58.952Z,524.00
2023-07-17T08:17:59.076Z,521.00
2023-07-17T08:18:58.953Z,522.00
2023-07-17T08:19:58.964Z,523.00
2023-07-17T08:20:58.963Z,524.00
2023-07-17T08:21:58.948Z,528.00
2023-07-17T08:22:59.096Z,526.00
2023-07-17T08:23:58.975Z,529.00
2023-07-17T08:24:58.964Z,529.00
2023-07-17T08:25:59.053Z,525.00
2023-07-17T08:27:57.962Z,525.00
2023-07-17T08:28:58.959Z,523.00
2023-07-17T08:29:58.985Z,522.00
2023-07-17T08:30:59.034Z,522.00
2023-07-17T08:31:59.312Z,521.00
2023-07-17T08:32:59.001Z,520.00
2023-07-17T08:33:58.967Z,520.00
2023-07-17T08:34:58.946Z,520.00
2023-07-17T08:35:58.939Z,521.00
2023-07-17T08:36:58.941Z,520.00
2023-07-17T08:37:58.944Z,519.00
2023-07-17T08:38:58.947Z,520.00
2023-07-17T08:39:58.951Z,520.00
2023-07-17T08:40:58.991Z,520.00
2023-07-17T08:41:58.954Z,518.00
2023-07-17T08:42:58.945Z,520.00
2023-07-17T08:43:58.948Z,521.00
2023-07-17T08:44:58.949Z,520.00
2023-07-17T08:46:01.042Z,523.00
2023-07-17T08:46:58.947Z,524.00
2023-07-17T08:47:59.044Z,523.00
2023-07-17T08:48:58.939Z,524.00
2023-07-17T08:49:58.955Z,526.00
2023-07-17T08:50:58.963Z,524.00
2023-07-17T08:51:58.942Z,521.00
2023-07-17T08:52:58.968Z,522.00
2023-07-17T08:54:13.566Z,524.00
2023-07-17T08:54:58.949Z,524.00
2023-07-17T08:55:58.923Z,523.00
2023-07-17T08:56:58.925Z,520.00
2023-07-17T08:57:58.962Z,520.00
2023-07-17T08:58:58.953Z,517.00
2023-07-17T08:59:59.032Z,519.00
2023-07-17T09:00:58.933Z,520.00
2023-07-17T09:01:58.975Z,520.00
2023-07-17T09:02:58.992Z,521.00
2023-07-17T09:03:58.908Z,520.00
2023-07-17T09:04:58.915Z,519.00
2023-07-17T09:05:58.893Z,516.00
2023-07-17T09:06:58.889Z,517.00
2023-07-17T09:07:58.876Z,518.00
2023-07-17T09:08:58.871Z,518.00
2023-07-17T09:09:58.862Z,519.00
2023-07-17T09:10:58.859Z,521.00
2023-07-17T09:11:58.851Z,520.00
2023-07-17T09:12:58.859Z,519.00
2023-07-17T09:13:58.854Z,520.00
2023-07-17T09:14:58.829Z,524.00
2023-07-17T09:15:58.826Z,525.00
2023-07-17T09:16:58.833Z,524.00
2023-07-17T09:17:58.868Z,523.00
2023-07-17T09:18:58.803Z,522.00
2023-07-17T09:19:58.790Z,524.00
2023-07-17T09:20:58.783Z,535.00
2023-07-17T09:21:58.767Z,535.00
2023-07-17T09:22:58.812Z,539.00
2023-07-17T09:23:58.834Z,539.00
2023-07-17T09:24:58.909Z,537.00
2023-07-17T09:25:58.917Z,530.00
2023-07-17T09:26:58.946Z,528.00
2023-07-17T09:27:58.998Z,526.00
2023-07-17T09:28:59.098Z,526.00
2023-07-17T09:29:59.113Z,528.00
2023-07-17T09:30:59.235Z,528.00
2023-07-17T09:31:59.225Z,529.00
2023-07-17T09:32:59.299Z,530.00
2023-07-17T09:33:59.376Z,529.00
2023-07-17T09:34:59.388Z,530.00
2023-07-17T09:35:59.439Z,529.00
2023-07-17T09:36:59.500Z,530.00
2023-07-17T09:37:59.574Z,525.00
2023-07-17T09:38:59.609Z,524.00
2023-07-17T09:39:59.663Z,523.00
2023-07-17T09:40:59.722Z,523.00
2023-07-17T09:41:59.767Z,523.00
2023-07-17T09:42:59.814Z,523.00
2023-07-17T09:43:59.870Z,524.00
2023-07-17T09:44:59.917Z,523.00
2023-07-17T09:45:59.963Z,524.00
2023-07-17T09:47:00.075Z,524.00
2023-07-17T09:48:00.175Z,524.00
2023-07-17T09:49:00.115Z,524.00
2023-07-17T09:50:00.188Z,526.00
2023-07-17T09:51:00.202Z,527.00
2023-07-17T09:52:00.243Z,531.00
2023-07-17T09:53:00.288Z,530.00
2023-07-17T09:54:00.338Z,527.00
2023-07-17T09:55:00.369Z,528.00
2023-07-17T09:56:00.416Z,528.00
2023-07-17T09:57:00.453Z,527.00
2023-07-17T09:58:00.566Z,525.00
2023-07-17T09:59:00.536Z,522.00
2023-07-17T10:00:00.588Z,524.00
2023-07-17T10:01:00.699Z,522.00
2023-07-17T10:02:00.677Z,522.00
2023-07-17T10:03:00.787Z,524.00
2023-07-17T10:04:00.802Z,523.00
2023-07-17T10:05:00.867Z,524.00
2023-07-17T10:06:00.871Z,525.00
2023-07-17T10:07:00.889Z,524.00
2023-07-17T10:08:00.960Z,525.00
2023-07-17T10:09:00.940Z,523.00
2023-07-17T10:10:00.970Z,520.00
2023-07-17T10:11:01.004Z,522.00
2023-07-17T10:12:01.031Z,524.00
2023-07-17T10:13:01.050Z,526.00
2023-07-17T10:14:01.077Z,528.00
2023-07-17T10:15:01.127Z,527.00
2023-07-17T10:16:01.111Z,528.00
2023-07-17T10:17:01.213Z,526.00
2023-07-17T10:18:01.219Z,527.00
2023-07-17T10:19:01.200Z,526.00
2023-07-17T10:20:01.166Z,526.00
2023-07-17T10:21:01.192Z,528.00
2023-07-17T10:22:01.259Z,525.00
2023-07-17T10:23:01.253Z,525.00
2023-07-17T10:24:01.241Z,522.00
2023-07-17T10:25:01.233Z,522.00
2023-07-17T10:26:01.251Z,522.00
2023-07-17T10:27:01.250Z,522.00
2023-07-17T10:28:01.366Z,523.00
2023-07-17T10:29:01.264Z,525.00
2023-07-17T10:30:01.303Z,527.00
2023-07-17T10:31:01.323Z,526.00
2023-07-17T10:32:01.300Z,526.00
2023-07-17T10:33:01.292Z,525.00
2023-07-17T10:34:01.289Z,525.00
2023-07-17T10:35:01.271Z,524.00
2023-07-17T10:36:01.283Z,524.00
2023-07-17T10:37:01.282Z,525.00
2023-07-17T10:38:01.322Z,523.00
2023-07-17T10:39:01.266Z,527.00
2023-07-17T10:40:01.262Z,528.00
2023-07-17T10:41:01.323Z,529.00
2023-07-17T10:42:01.253Z,527.00
2023-07-17T10:43:01.228Z,528.00
2023-07-17T10:44:17.446Z,527.00
2023-07-17T10:45:01.194Z,525.00
2023-07-17T10:46:01.227Z,523.00
2023-07-17T10:47:01.219Z,524.00
2023-07-17T10:48:01.202Z,526.00
2023-07-17T10:49:01.104Z,526.00
2023-07-17T10:50:01.072Z,527.00
2023-07-17T10:51:01.068Z,525.00
2023-07-17T10:52:01.059Z,524.00
2023-07-17T10:53:01.002Z,523.00
2023-07-17T10:54:01.037Z,520.00
2023-07-17T10:55:00.956Z,522.00
2023-07-17T10:56:00.920Z,521.00
2023-07-17T10:57:00.889Z,521.00
2023-07-17T10:58:00.865Z,521.00
2023-07-17T10:59:00.829Z,521.00
2023-07-17T11:00:00.799Z,523.00
2023-07-17T11:01:00.773Z,523.00
2023-07-17T11:02:00.836Z,525.00
2023-07-17T11:03:00.747Z,526.00
2023-07-17T11:04:00.755Z,524.00
2023-07-17T11:05:00.676Z,523.00
2023-07-17T11:06:00.635Z,523.00
2023-07-17T11:07:00.605Z,524.00
2023-07-17T11:08:00.570Z,522.00
2023-07-17T11:09:00.536Z,516.00
2023-07-17T11:10:00.675Z,517.00
2023-07-17T11:11:00.480Z,513.00
2023-07-17T11:12:00.447Z,516.00
2023-07-17T11:13:00.418Z,516.00
2023-07-17T11:14:00.382Z,517.00
2023-07-17T11:15:00.362Z,516.00
2023-07-17T11:16:00.324Z,518.00
2023-07-17T11:17:00.376Z,517.00
2023-07-17T11:18:00.388Z,518.00
2023-07-17T11:19:00.235Z,518.00
2023-07-17T11:20:00.236Z,517.00
2023-07-17T11:21:00.189Z,518.00
2023-07-17T11:22:00.159Z,519.00
2023-07-17T11:23:00.169Z,521.00
2023-07-17T11:24:00.112Z,521.00
2023-07-17T11:25:00.088Z,522.00
2023-07-17T11:26:00.089Z,522.00
2023-07-17T11:27:00.016Z,520.00
2023-07-17T11:27:59.999Z,521.00
2023-07-17T11:28:59.969Z,522.00
2023-07-17T11:29:59.940Z,521.00
2023-07-17T11:30:59.908Z,522.00
2023-07-17T11:31:59.905Z,520.00
2023-07-17T11:32:59.929Z,518.00
2023-07-17T11:33:59.894Z,519.00
2023-07-17T11:34:59.799Z,518.00
2023-07-17T11:35:59.772Z,515.00
2023-07-17T11:36:59.751Z,514.00
2023-07-17T11:37:59.714Z,516.00
2023-07-17T11:38:59.701Z,518.00
2023-07-17T11:39:59.666Z,519.00
2023-07-17T11:40:59.654Z,522.00
2023-07-17T11:41:59.638Z,521.00
2023-07-17T11:42:59.585Z,520.00
2023-07-17T11:43:59.552Z,523.00
2023-07-17T11:44:59.526Z,521.00
2023-07-17T11:45:59.526Z,522.00
2023-07-17T11:46:59.491Z,521.00
2023-07-17T11:47:59.531Z,520.00
2023-07-17T11:48:59.437Z,519.00
2023-07-17T11:49:59.393Z,521.00
2023-07-17T11:50:59.352Z,519.00
2023-07-17T11:51:59.328Z,523.00
2023-07-17T11:52:59.314Z,523.00
2023-07-17T11:53:59.294Z,523.00
2023-07-17T11:54:59.283Z,520.00
2023-07-17T11:55:59.286Z,521.00
2023-07-17T11:56:59.327Z,521.00
2023-07-17T11:58:04.381Z,521.00
2023-07-17T11:58:59.345Z,518.00
2023-07-17T11:59:59.292Z,519.00
2023-07-17T12:00:59.289Z,520.00
2023-07-17T12:01:59.259Z,521.00
2023-07-17T12:02:59.257Z,522.00
2023-07-17T12:03:59.214Z,520.00
2023-07-17T12:04:59.125Z,519.00
2023-07-17T12:05:59.124Z,518.00
2023-07-17T12:06:59.098Z,518.00
2023-07-17T12:07:59.048Z,519.00
2023-07-17T12:08:59.009Z,518.00
2023-07-17T12:09:59.008Z,521.00
2023-07-17T12:10:58.943Z,522.00
2023-07-17T12:11:58.924Z,523.00
2023-07-17T12:12:58.889Z,521.00
2023-07-17T12:13:58.876Z,523.00
2023-07-17T12:14:58.832Z,521.00
2023-07-17T12:15:58.919Z,519.00
2023-07-17T12:16:58.785Z,517.00
2023-07-17T12:17:58.805Z,517.00
2023-07-17T12:18:58.719Z,517.00
2023-07-17T12:19:58.695Z,517.00
2023-07-17T12:20:58.675Z,517.00
2023-07-17T12:21:58.826Z,517.00
2023-07-17T12:22:58.662Z,518.00
2023-07-17T12:23:58.661Z,522.00
2023-07-17T12:24:58.697Z,522.00
2023-07-17T12:25:58.768Z,522.00
2023-07-17T12:26:59.635Z,522.00
2023-07-17T12:27:58.798Z,523.00
2023-07-17T12:28:58.837Z,525.00
2023-07-17T12:29:58.909Z,528.00